Time;durP1;ratioP1;P1;durP2;ratioP2;P2;SDS_P1;SDS_P2;PMS_P1;PMS_P2;Temp;Humidity;BMP_temperature;BMP_pressure;BME280_temperature;BME280_humidity;BME280_pressure;Samples;Min_cycle;Max_cycle;Signal;HPM_P1;HPM_P2
2024/02/01 00:01:39;;;;;;;12.20;6.28;;;22.80;52.00;;;;;;6125355;22;86820;-62
2024/02/01 00:04:04;;;;;;;13.85;5.95;;;22.80;51.90;;;;;;6122416;22;87511;-60
2024/02/01 00:06:30;;;;;;;9.60;5.13;;;22.80;51.90;;;;;;6157093;22;86358;-63
2024/02/01 00:08:57;;;;;;;12.35;5.65;;;22.80;51.90;;;;;;6155246;22;86187;-61
2024/02/01 00:11:23;;;;;;;11.85;5.38;;;22.80;52.10;;;;;;6129560;22;85877;-61
2024/02/01 00:13:49;;;;;;;11.45;5.90;;;22.70;52.10;;;;;;6152935;22;86851;-62
2024/02/01 00:16:24;;;;;;;9.70;5.38;;;22.70;52.00;;;;;;6153150;22;86483;-63
2024/02/01 00:18:50;;;;;;;11.55;6.05;;;22.70;52.00;;;;;;6124458;22;85897;-61
2024/02/01 00:21:18;;;;;;;9.45;5.45;;;22.60;52.00;;;;;;6153126;22;86174;-61
2024/02/01 00:23:44;;;;;;;12.45;5.75;;;22.60;51.90;;;;;;6126957;22;89378;-62
2024/02/01 00:26:13;;;;;;;11.30;5.32;;;22.60;52.00;;;;;;6153162;22;86453;-63
2024/02/01 00:28:40;;;;;;;14.43;6.30;;;22.60;52.10;;;;;;6126489;22;86051;-62
2024/02/01 00:31:06;;;;;;;13.48;5.97;;;22.60;52.10;;;;;;6111500;22;86438;-60
2024/02/01 00:33:32;;;;;;;11.10;5.25;;;22.50;52.10;;;;;;6125992;22;87144;-62
2024/02/01 00:35:58;;;;;;;10.65;5.40;;;22.60;52.10;;;;;;6123294;22;88786;-62
2024/02/01 00:38:24;;;;;;;12.63;6.68;;;22.50;52.10;;;;;;6127564;22;85816;-60
2024/02/01 00:40:53;;;;;;;11.30;5.65;;;22.50;52.10;;;;;;6096599;22;86201;-60
2024/02/01 00:43:19;;;;;;;9.80;4.88;;;22.50;52.00;;;;;;6126153;22;87883;-61
2024/02/01 00:45:45;;;;;;;10.52;5.10;;;22.40;52.00;;;;;;6153285;22;86285;-60
2024/02/01 00:48:11;;;;;;;7.97;5.25;;;22.40;52.10;;;;;;6126495;22;86606;-61
2024/02/01 00:50:37;;;;;;;13.45;5.93;;;22.40;52.00;;;;;;6154821;22;85527;-61
2024/02/01 00:53:03;;;;;;;8.48;4.60;;;22.40;52.00;;;;;;6117174;22;87525;-60
2024/02/01 00:55:29;;;;;;;9.27;4.93;;;22.40;52.00;;;;;;6118711;22;86788;-62
2024/02/01 00:57:54;;;;;;;12.80;5.88;;;22.40;52.10;;;;;;6152369;22;86180;-61
2024/02/01 01:00:20;;;;;;;9.70;5.63;;;22.30;52.10;;;;;;6126072;22;86115;-62
2024/02/01 01:02:46;;;;;;;11.30;5.35;;;22.30;52.10;;;;;;6153619;22;88342;-62
2024/02/01 01:05:12;;;;;;;8.57;4.70;;;22.30;52.20;;;;;;6123737;22;86996;-61
2024/02/01 01:07:38;;;;;;;7.97;4.60;;;22.30;52.20;;;;;;6152464;22;86166;-61
2024/02/01 01:10:04;;;;;;;9.65;5.15;;;22.30;52.20;;;;;;6125061;22;85799;-59
2024/02/01 01:12:30;;;;;;;9.77;5.07;;;22.30;52.10;;;;;;6126000;22;87886;-61
2024/02/01 01:14:56;;;;;;;10.93;5.50;;;22.20;52.10;;;;;;6152555;22;86090;-62
2024/02/01 01:17:21;;;;;;;13.75;5.90;;;22.20;52.20;;;;;;6155149;22;85712;-60
2024/02/01 01:19:50;;;;;;;10.93;4.85;;;22.20;52.10;;;;;;6127547;22;85575;-61
2024/02/01 01:22:15;;;;;;;10.63;4.95;;;22.20;52.10;;;;;;6127777;22;89743;-59
2024/02/01 01:24:43;;;;;;;10.73;4.93;;;22.20;52.10;;;;;;6155024;22;86241;-60
2024/02/01 01:27:09;;;;;;;9.25;4.13;;;22.10;52.00;;;;;;6125952;22;86076;-60
2024/02/01 01:29:34;;;;;;;10.75;4.97;;;22.10;52.10;;;;;;6155933;22;85751;-60
2024/02/01 01:32:00;;;;;;;11.85;4.90;;;22.10;52.00;;;;;;6153835;22;86659;-59
2024/02/01 01:34:26;;;;;;;10.80;4.85;;;22.10;52.10;;;;;;6127589;22;86917;-62
2024/02/01 01:36:53;;;;;;;8.85;4.40;;;22.10;52.10;;;;;;6151935;22;86641;-61
2024/02/01 01:39:18;;;;;;;10.60;4.70;;;22.10;52.00;;;;;;6126051;22;86146;-60
2024/02/01 01:41:45;;;;;;;9.93;5.07;;;22.10;52.00;;;;;;6126912;22;89305;-62
2024/02/01 01:44:11;;;;;;;9.93;4.88;;;22.10;51.90;;;;;;6153632;22;86293;-60
2024/02/01 01:46:37;;;;;;;7.75;4.50;;;22.00;51.90;;;;;;6154470;22;85541;-61
2024/02/01 01:49:05;;;;;;;7.70;4.03;;;22.00;52.70;;;;;;6154673;22;85595;-61
2024/02/01 01:51:32;;;;;;;9.00;5.13;;;22.00;52.00;;;;;;6152513;22;87645;-61
2024/02/01 01:53:58;;;;;;;9.45;4.93;;;22.00;52.10;;;;;;6125655;22;86851;-62
2024/02/01 01:56:25;;;;;;;8.50;4.13;;;22.00;52.00;;;;;;6155476;22;86280;-60
2024/02/01 01:58:52;;;;;;;10.43;5.05;;;22.00;52.10;;;;;;6127818;22;86285;-60
2024/02/01 02:01:18;;;;;;;8.65;4.68;;;21.90;52.10;;;;;;6126461;22;89647;-60
2024/02/01 02:03:47;;;;;;;10.13;4.57;;;22.00;52.10;;;;;;6125931;22;88665;-60
2024/02/01 02:06:13;;;;;;;8.63;4.47;;;21.90;52.10;;;;;;6152851;22;85846;-63
2024/02/01 02:08:40;;;;;;;8.63;4.82;;;21.90;52.10;;;;;;6153548;22;86174;-61
2024/02/01 02:11:06;;;;;;;6.72;4.00;;;21.90;52.10;;;;;;6126492;22;87576;-60
2024/02/01 02:13:32;;;;;;;6.68;4.63;;;21.90;52.10;;;;;;6154490;22;86400;-60
2024/02/01 02:15:57;;;;;;;7.57;4.10;;;21.90;52.10;;;;;;6126750;22;86198;-62
2024/02/01 02:18:23;;;;;;;8.45;4.53;;;21.90;52.10;;;;;;6127424;22;86189;-60
2024/02/01 02:20:51;;;;;;;8.85;4.70;;;21.90;52.10;;;;;;6154200;22;86018;-60
2024/02/01 02:23:17;;;;;;;5.97;4.03;;;21.90;52.30;;;;;;6152498;22;91960;-61
2024/02/01 02:25:43;;;;;;;6.80;4.18;;;21.90;52.30;;;;;;6153915;22;86221;-63
2024/02/01 02:28:09;;;;;;;7.80;4.60;;;21.80;52.30;;;;;;6153820;22;85812;-60
2024/02/01 02:30:38;;;;;;;8.77;4.50;;;21.80;52.20;;;;;;6126140;22;87561;-60
2024/02/01 02:33:04;;;;;;;9.15;4.85;;;21.80;52.10;;;;;;6152164;22;85762;-60
2024/02/01 02:35:29;;;;;;;8.38;4.38;;;21.80;52.20;;;;;;6154832;22;87237;-61
2024/02/01 02:37:55;;;;;;;8.48;4.28;;;21.80;52.30;;;;;;6154479;22;85559;-60
2024/02/01 02:40:22;;;;;;;9.52;4.57;;;21.80;52.30;;;;;;6100315;22;87815;-60
2024/02/01 02:42:48;;;;;;;7.43;4.43;;;21.80;52.30;;;;;;6146008;22;86371;-62
2024/02/01 02:45:14;;;;;;;9.55;4.60;;;21.70;52.30;;;;;;6121268;22;85987;-61
2024/02/01 02:47:40;;;;;;;8.57;4.18;;;21.80;52.30;;;;;;6127619;22;85982;-59
2024/02/01 02:50:08;;;;;;;7.07;4.35;;;21.70;52.30;;;;;;6153922;22;85794;-60
2024/02/01 02:52:39;;;;;;;7.63;3.63;;;21.70;52.30;;;;;;6153567;22;85996;-60
2024/02/01 02:55:05;;;;;;;7.10;3.88;;;21.70;52.30;;;;;;6153665;22;86096;-60
2024/02/01 02:57:32;;;;;;;7.43;3.90;;;21.70;52.20;;;;;;6153669;22;85749;-60
2024/02/01 02:59:58;;;;;;;7.32;3.90;;;21.70;52.20;;;;;;6153329;22;86560;-60
2024/02/01 03:02:24;;;;;;;9.73;4.95;;;21.60;52.20;;;;;;6154491;22;86120;-60
2024/02/01 03:04:50;;;;;;;7.50;4.00;;;21.60;52.20;;;;;;6125804;22;85853;-61
2024/02/01 03:07:16;;;;;;;8.85;4.65;;;21.60;52.30;;;;;;6127293;22;85751;-59
2024/02/01 03:09:41;;;;;;;8.60;4.35;;;21.60;52.30;;;;;;6154677;22;86536;-59
2024/02/01 03:12:07;;;;;;;7.10;4.15;;;21.60;52.30;;;;;;6150870;22;86007;-59
2024/02/01 03:14:43;;;;;;;7.78;4.10;;;21.60;52.30;;;;;;6155210;22;85604;-61
2024/02/01 03:17:09;;;;;;;6.40;3.72;;;21.60;52.20;;;;;;6152714;22;85899;-62
2024/02/01 03:19:35;;;;;;;6.30;3.45;;;21.60;52.30;;;;;;6152023;22;86256;-60
2024/02/01 03:22:02;;;;;;;8.48;3.80;;;21.60;52.20;;;;;;6127380;22;85903;-61
2024/02/01 03:24:30;;;;;;;7.93;3.85;;;21.60;52.40;;;;;;6152061;22;86096;-60
2024/02/01 03:26:57;;;;;;;5.63;3.88;;;21.50;52.20;;;;;;6126504;22;86565;-60
2024/02/01 03:29:24;;;;;;;10.27;5.10;;;21.60;52.40;;;;;;6153906;22;86757;-63
2024/02/01 03:31:50;;;;;;;5.93;3.90;;;21.50;52.30;;;;;;6154225;22;86463;-59
2024/02/01 03:34:20;;;;;;;5.88;3.40;;;21.50;52.30;;;;;;6153445;22;85631;-59
2024/02/01 03:36:48;;;;;;;7.00;3.92;;;21.50;52.30;;;;;;6120479;22;86366;-60
2024/02/01 03:39:23;;;;;;;6.85;3.97;;;21.50;52.40;;;;;;6147613;22;87346;-61
2024/02/01 03:41:54;;;;;;;6.45;3.42;;;21.50;52.30;;;;;;6103670;22;87337;-61
2024/02/01 03:44:21;;;;;;;6.18;3.65;;;21.50;52.30;;;;;;6154159;22;88528;-63
2024/02/01 03:46:47;;;;;;;5.80;3.65;;;21.50;52.40;;;;;;6150418;22;85858;-60
2024/02/01 03:49:14;;;;;;;7.72;3.85;;;21.50;52.50;;;;;;6150275;22;86895;-59
2024/02/01 03:51:40;;;;;;;6.45;3.75;;;21.50;52.30;;;;;;6125063;22;86728;-60
2024/02/01 03:54:06;;;;;;;6.13;3.47;;;21.40;52.30;;;;;;6152478;22;86299;-60
2024/02/01 03:56:35;;;;;;;6.65;3.22;;;21.50;52.20;;;;;;6128178;22;85695;-61
2024/02/01 03:59:03;;;;;;;6.85;3.80;;;21.50;52.20;;;;;;6126478;22;87491;-60
2024/02/01 04:01:29;;;;;;;6.68;4.15;;;21.40;52.30;;;;;;6154023;22;86805;-62
2024/02/01 04:03:56;;;;;;;7.25;3.83;;;21.40;52.30;;;;;;6152335;22;87037;-60
2024/02/01 04:06:25;;;;;;;6.25;3.47;;;21.40;52.30;;;;;;6153029;22;86199;-61
2024/02/01 04:08:51;;;;;;;5.00;3.25;;;21.40;52.90;;;;;;6126407;22;86860;-59
2024/02/01 04:11:17;;;;;;;5.50;3.58;;;21.40;52.30;;;;;;6127691;22;86662;-59
2024/02/01 04:13:43;;;;;;;7.53;3.70;;;21.30;52.20;;;;;;6126553;22;85727;-61
2024/02/01 04:16:10;;;;;;;5.28;3.45;;;21.40;52.30;;;;;;6152876;22;86352;-62
2024/02/01 04:18:38;;;;;;;5.07;3.45;;;21.30;52.20;;;;;;6126167;22;87644;-61
2024/02/01 04:21:10;;;;;;;6.85;3.92;;;21.30;52.20;;;;;;6102192;22;86139;-59
2024/02/01 04:23:37;;;;;;;5.32;3.20;;;21.30;52.30;;;;;;6154269;22;86243;-60
2024/02/01 04:26:03;;;;;;;6.65;3.72;;;21.30;52.30;;;;;;6153544;22;85535;-60
2024/02/01 04:28:29;;;;;;;5.72;3.38;;;21.30;52.10;;;;;;6152292;22;87012;-60
2024/02/01 04:30:55;;;;;;;6.13;3.38;;;21.30;52.20;;;;;;6126381;22;86819;-60
2024/02/01 04:33:21;;;;;;;5.53;3.45;;;21.30;52.30;;;;;;6153415;22;85795;-59
2024/02/01 04:35:47;;;;;;;6.30;3.53;;;21.30;52.30;;;;;;6154404;22;85499;-60
2024/02/01 04:38:13;;;;;;;6.03;3.45;;;21.30;52.30;;;;;;6122397;22;88117;-60
2024/02/01 04:40:39;;;;;;;6.68;3.33;;;21.30;52.30;;;;;;6125345;22;86200;-62
2024/02/01 04:43:06;;;;;;;6.78;3.72;;;21.30;52.30;;;;;;6140290;22;86016;-60
2024/02/01 04:45:33;;;;;;;4.45;3.25;;;21.30;52.40;;;;;;6126783;22;86646;-61
2024/02/01 04:48:00;;;;;;;6.47;3.47;;;21.30;52.40;;;;;;6128077;22;89553;-63
2024/02/01 04:50:26;;;;;;;5.00;3.17;;;21.30;52.40;;;;;;6155555;22;85902;-60
2024/02/01 04:52:52;;;;;;;4.85;3.10;;;21.20;52.30;;;;;;6127106;22;85873;-62
2024/02/01 04:55:17;;;;;;;7.68;3.85;;;21.20;52.30;;;;;;6127556;22;85922;-60
2024/02/01 04:57:43;;;;;;;4.90;2.88;;;21.20;53.00;;;;;;6154421;22;86253;-62
2024/02/01 05:00:21;;;;;;;6.50;3.42;;;21.20;52.20;;;;;;6154905;22;86292;-63
2024/02/01 05:02:47;;;;;;;7.53;3.35;;;21.20;52.20;;;;;;6153644;22;85787;-61
2024/02/01 05:05:14;;;;;;;5.28;3.40;;;21.20;52.30;;;;;;6154768;22;86086;-60
2024/02/01 05:07:40;;;;;;;3.72;2.63;;;21.20;52.20;;;;;;6148816;22;86872;-60
2024/02/01 05:10:07;;;;;;;5.95;3.10;;;21.20;52.30;;;;;;6151762;22;87740;-60
2024/02/01 05:12:35;;;;;;;6.55;3.40;;;21.20;52.30;;;;;;6150760;22;87212;-61
2024/02/01 05:15:03;;;;;;;7.18;3.42;;;21.20;52.30;;;;;;6152245;22;87417;-62
2024/02/01 05:17:28;;;;;;;4.07;2.70;;;21.20;52.40;;;;;;6151341;22;87628;-60
2024/02/01 05:19:59;;;;;;;4.72;2.90;;;21.20;52.30;;;;;;6123867;22;89152;-61
2024/02/01 05:22:28;;;;;;;5.75;3.20;;;21.20;52.30;;;;;;6147451;22;87161;-63
2024/02/01 05:24:57;;;;;;;6.15;3.47;;;21.10;52.20;;;;;;6122886;22;87760;-60
2024/02/01 05:27:22;;;;;;;4.95;3.22;;;21.10;52.30;;;;;;6114416;22;87427;-60
2024/02/01 05:29:51;;;;;;;6.05;2.97;;;21.10;52.20;;;;;;6126798;22;89095;-61
2024/02/01 05:32:17;;;;;;;4.85;3.05;;;21.10;52.30;;;;;;6153002;22;91755;-59
2024/02/01 05:34:46;;;;;;;5.20;3.05;;;21.10;52.20;;;;;;6152533;22;87507;-60
2024/02/01 05:37:13;;;;;;;4.55;2.83;;;21.10;52.30;;;;;;6152138;22;86760;-60
2024/02/01 05:39:44;;;;;;;6.65;3.78;;;21.10;52.40;;;;;;6150448;22;87471;-60
2024/02/01 05:42:13;;;;;;;4.00;2.45;;;21.10;52.30;;;;;;6150913;22;87726;-61
2024/02/01 05:44:39;;;;;;;4.65;2.70;;;21.10;52.30;;;;;;6152216;22;87799;-59
2024/02/01 05:47:05;;;;;;;5.35;3.08;;;21.10;52.40;;;;;;6151099;22;87604;-62
2024/02/01 05:49:33;;;;;;;5.65;3.03;;;21.10;52.30;;;;;;6123816;22;88167;-60
2024/02/01 05:52:04;;;;;;;4.70;2.53;;;21.10;52.40;;;;;;6146953;22;88801;-60
2024/02/01 05:54:32;;;;;;;4.60;2.60;;;21.00;52.20;;;;;;6151788;22;87498;-60
2024/02/01 05:56:59;;;;;;;5.53;2.73;;;21.00;52.20;;;;;;6122749;22;87143;-62
2024/02/01 05:59:24;;;;;;;5.28;3.00;;;21.00;52.30;;;;;;6152285;22;87591;-61
2024/02/01 06:01:50;;;;;;;4.85;2.75;;;21.00;52.40;;;;;;6152418;22;86762;-61
2024/02/01 06:04:16;;;;;;;4.93;3.08;;;21.00;52.20;;;;;;6152597;22;86873;-60
2024/02/01 06:06:47;;;;;;;5.15;2.80;;;21.00;52.30;;;;;;6150668;22;86894;-61
2024/02/01 06:09:16;;;;;;;4.10;2.75;;;21.00;52.20;;;;;;6122360;22;89524;-60
2024/02/01 06:11:48;;;;;;;5.17;3.23;;;21.00;52.30;;;;;;6154075;22;88784;-59
2024/02/01 06:14:14;;;;;;;5.05;3.05;;;21.00;52.40;;;;;;6148956;22;87227;-61
2024/02/01 06:16:40;;;;;;;5.05;2.63;;;21.00;52.40;;;;;;6124296;22;88089;-63
2024/02/01 06:19:06;;;;;;;5.28;3.20;;;21.00;52.40;;;;;;6151732;22;87958;-60
2024/02/01 06:21:32;;;;;;;4.30;2.50;;;21.00;52.40;;;;;;6151488;22;87837;-61
2024/02/01 06:23:59;;;;;;;5.63;2.67;;;21.00;52.40;;;;;;6123192;22;86903;-60
2024/02/01 06:26:26;;;;;;;5.10;2.50;;;21.00;52.40;;;;;;6152104;22;86739;-60
2024/02/01 06:29:00;;;;;;;6.10;3.22;;;21.00;52.40;;;;;;6153891;22;88096;-59
2024/02/01 06:31:26;;;;;;;4.95;2.78;;;21.00;52.40;;;;;;6150202;22;88530;-63
2024/02/01 06:33:52;;;;;;;4.82;3.13;;;20.90;52.30;;;;;;6119654;22;88146;-59
2024/02/01 06:36:29;;;;;;;4.63;2.67;;;20.90;52.40;;;;;;6150613;22;87387;-61
2024/02/01 06:42:01;;;;;;;4.22;2.85;;;20.90;52.20;;;;;;6154722;22;87163;-60
2024/02/01 06:44:24;;;;;;;4.78;2.85;;;20.90;52.20;;;;;;6151600;22;87261;-60
2024/02/01 06:52:43;;;;;;;4.50;2.95;;;20.90;52.20;;;;;;6146219;22;87094;-59
2024/02/01 06:54:50;;;;;;;3.63;2.35;;;20.90;52.20;;;;;;6127757;22;87319;-60
2024/02/01 06:57:22;;;;;;;3.50;2.35;;;20.90;52.20;;;;;;6151741;22;87740;-61
2024/02/01 07:05:57;;;;;;;4.30;2.72;;;20.80;52.00;;;;;;6103608;22;87068;-60
2024/02/01 07:08:26;;;;;;;3.72;2.65;;;20.80;52.10;;;;;;6147749;22;88089;-60
2024/02/01 07:10:58;;;;;;;;;;;20.80;52.20;;;;;;6149477;22;88035;-61
2024/02/01 07:14:15;;;;;;;4.28;2.88;;;20.80;52.10;;;;;;6153336;22;87154;-60
2024/02/01 07:22:03;;;;;;;4.65;2.53;;;20.80;52.10;;;;;;6058986;23;87534;-59
2024/02/01 07:24:45;;;;;;;4.70;2.60;;;20.80;52.10;;;;;;6101226;22;88579;-60
2024/02/01 08:00:27;;;;;;;5.47;2.50;;;21.60;53.10;;;;;;6142877;22;87247;-62
2024/02/01 08:03:11;;;;;;;4.50;2.15;;;21.70;52.90;;;;;;6151336;22;86874;-60
2024/02/01 08:08:22;;;;;;;3.47;2.05;;;21.90;52.90;;;;;;6120737;23;91864;-62
2024/02/01 08:10:56;;;;;;;3.63;2.20;;;21.90;52.70;;;;;;6094991;23;87281;-59
2024/02/01 08:13:23;;;;;;;3.63;2.05;;;22.00;52.60;;;;;;6122135;23;86428;-59
2024/02/01 08:15:52;;;;;;;5.15;2.10;;;22.10;52.40;;;;;;6069684;23;88946;-60
2024/02/01 08:18:18;;;;;;;6.25;3.08;;;22.10;52.30;;;;;;6093473;23;89945;-62
2024/02/01 08:20:44;;;;;;;7.80;2.50;;;22.20;52.30;;;;;;6120978;23;88270;-60
2024/02/01 08:23:25;;;;;;;3.22;1.90;;;22.30;52.50;;;;;;6121117;23;87736;-60
2024/02/01 08:25:51;;;;;;;3.50;2.20;;;22.30;52.00;;;;;;6095153;23;89638;-61
2024/02/01 08:28:20;;;;;;;5.05;2.20;;;22.30;52.00;;;;;;6092771;23;87562;-60
2024/02/01 08:30:47;;;;;;;3.88;2.55;;;22.40;52.00;;;;;;6094978;23;88131;-61
2024/02/01 08:33:16;;;;;;;3.65;2.08;;;22.40;51.50;;;;;;6094942;23;90331;-61
2024/02/01 08:35:44;;;;;;;5.25;2.13;;;22.40;50.80;;;;;;6094500;23;90569;-63
2024/02/01 08:38:10;;;;;;;4.93;2.10;;;22.40;51.20;;;;;;6092119;23;88339;-60
2024/02/01 08:40:42;;;;;;;3.83;2.33;;;22.50;51.40;;;;;;6121059;23;87747;-63
2024/02/01 08:43:11;;;;;;;3.78;2.13;;;22.50;51.10;;;;;;6119302;23;87516;-62
2024/02/01 08:45:39;;;;;;;3.92;2.40;;;22.50;50.90;;;;;;6094105;23;89029;-61
2024/02/01 08:48:08;;;;;;;3.80;2.23;;;22.50;51.10;;;;;;6092703;23;89180;-61
2024/02/01 08:50:46;;;;;;;4.75;2.15;;;22.60;51.10;;;;;;6070228;23;87316;-60
2024/02/01 08:53:16;;;;;;;4.30;2.22;;;22.60;50.90;;;;;;6093061;23;87960;-61
2024/02/01 08:55:43;;;;;;;3.33;1.95;;;22.60;51.10;;;;;;6093496;23;87657;-60
2024/02/01 08:58:09;;;;;;;7.43;2.65;;;22.60;51.00;;;;;;6093343;23;89022;-59
2024/02/01 09:00:36;;;;;;;7.32;2.88;;;22.60;50.10;;;;;;6119394;23;87209;-60
2024/02/01 09:03:05;;;;;;;12.80;3.85;;;22.60;49.70;;;;;;6119374;23;88640;-61
2024/02/01 09:05:36;;;;;;;9.57;2.90;;;22.60;49.50;;;;;;6119246;23;88725;-59
2024/02/01 09:08:03;;;;;;;12.80;4.22;;;22.60;49.50;;;;;;6112560;23;88972;-61
2024/02/01 09:10:29;;;;;;;9.95;3.22;;;22.70;49.70;;;;;;6120919;23;88146;-60
2024/02/01 09:12:55;;;;;;;9.52;2.92;;;22.70;49.40;;;;;;6091771;23;87249;-60
2024/02/01 09:15:21;;;;;;;8.57;2.90;;;22.70;49.10;;;;;;6120126;23;88028;-60
2024/02/01 09:17:46;;;;;;;15.40;3.47;;;22.70;49.20;;;;;;6094137;23;88768;-59
2024/02/01 09:20:20;;;;;;;8.50;2.70;;;22.70;49.00;;;;;;6119156;23;87397;-62
2024/02/01 09:22:50;;;;;;;9.25;2.92;;;22.80;49.20;;;;;;6092382;23;87923;-60
2024/02/01 09:25:20;;;;;;;13.38;3.20;;;22.80;49.00;;;;;;6092774;23;89521;-60
2024/02/01 09:27:49;;;;;;;8.50;3.03;;;22.70;49.00;;;;;;6093229;23;88494;-59
2024/02/01 09:30:19;;;;;;;10.02;2.67;;;22.80;49.00;;;;;;6093121;23;87298;-60
2024/02/01 09:32:49;;;;;;;12.13;3.25;;;22.80;48.90;;;;;;6122046;23;87597;-60
2024/02/01 09:35:17;;;;;;;9.93;3.13;;;22.80;48.80;;;;;;6151244;22;93383;-60
2024/02/01 09:37:43;;;;;;;6.43;2.75;;;22.80;48.60;;;;;;6151589;22;88712;-60
2024/02/01 09:40:12;;;;;;;9.40;2.88;;;22.80;48.70;;;;;;6124583;22;87375;-62
2024/02/01 09:42:41;;;;;;;7.00;2.47;;;22.80;48.70;;;;;;6124283;22;87137;-60
2024/02/01 09:45:07;;;;;;;6.72;2.83;;;22.80;48.60;;;;;;6151220;22;88069;-59
2024/02/01 09:47:48;;;;;;;6.70;2.70;;;22.90;48.70;;;;;;6124754;22;88754;-60
2024/02/01 09:50:20;;;;;;;9.65;2.97;;;22.80;48.50;;;;;;6151509;22;87558;-59
2024/02/01 09:52:49;;;;;;;10.25;2.90;;;22.90;48.60;;;;;;6125517;22;86489;-60
2024/02/01 09:55:19;;;;;;;7.10;2.75;;;22.80;48.20;;;;;;6139549;22;87994;-59
2024/02/01 09:57:52;;;;;;;6.68;3.00;;;22.80;48.00;;;;;;6121810;22;88492;-62
2024/02/01 10:00:19;;;;;;;4.95;2.67;;;22.80;48.20;;;;;;6151626;22;88310;-60
2024/02/01 10:02:46;;;;;;;11.27;3.08;;;22.80;48.20;;;;;;6153260;22;87356;-60
2024/02/01 10:05:13;;;;;;;9.85;3.00;;;22.90;48.30;;;;;;6126443;22;88241;-60
2024/02/01 10:07:40;;;;;;;10.88;2.75;;;22.90;48.00;;;;;;6124601;22;88826;-60
2024/02/01 10:10:06;;;;;;;8.02;3.10;;;22.90;48.90;;;;;;6124757;22;87247;-59
2024/02/01 10:12:34;;;;;;;10.18;2.75;;;22.90;48.30;;;;;;6152666;22;87171;-60
2024/02/01 10:15:10;;;;;;;8.38;2.90;;;22.90;48.10;;;;;;6152551;22;88040;-60
2024/02/01 10:17:45;;;;;;;17.73;2.85;;;22.90;47.70;;;;;;6129051;22;87923;-61
2024/02/01 10:20:34;;;;;;;6.07;2.65;;;22.90;47.80;;;;;;6153433;22;87227;-61
2024/02/01 10:23:06;;;;;;;12.37;3.13;;;22.90;48.00;;;;;;6151749;22;87240;-60
2024/02/01 10:25:33;;;;;;;6.18;2.60;;;22.90;48.10;;;;;;6151590;22;89020;-60
2024/02/01 10:28:07;;;;;;;9.48;3.53;;;23.00;48.00;;;;;;6151819;22;89916;-60
2024/02/01 10:30:36;;;;;;;3.88;1.83;;;23.00;47.80;;;;;;6152590;22;87148;-60
2024/02/01 10:33:03;;;;;;;8.10;2.97;;;22.90;47.90;;;;;;6148577;22;86925;-60
2024/02/01 10:35:33;;;;;;;5.57;2.95;;;23.00;47.60;;;;;;6153464;22;88416;-60
2024/02/01 10:38:12;;;;;;;4.32;2.40;;;23.00;47.70;;;;;;6147021;22;88424;-60
2024/02/01 10:41:11;;;;;;;7.55;2.80;;;23.00;47.70;;;;;;6150952;22;87409;-60
2024/02/01 10:43:44;;;;;;;5.88;2.33;;;23.00;47.60;;;;;;6122441;22;86810;-59
2024/02/01 10:46:37;;;;;;;6.80;2.75;;;22.90;47.50;;;;;;6149732;22;87861;-60
2024/02/01 10:49:21;;;;;;;7.35;2.70;;;23.00;47.60;;;;;;6140775;22;87607;-61
2024/02/01 10:51:49;;;;;;;5.75;2.60;;;23.00;47.60;;;;;;6143514;22;87950;-60
2024/02/01 10:54:18;;;;;;;9.75;2.60;;;23.00;47.20;;;;;;6150220;22;87719;-60
2024/02/01 10:56:44;;;;;;;9.02;3.78;;;23.00;47.10;;;;;;6126693;22;87072;-61
2024/02/01 10:59:12;;;;;;;8.25;3.15;;;23.00;47.10;;;;;;6151710;22;87151;-59
2024/02/01 11:01:40;;;;;;;6.78;2.80;;;23.00;47.30;;;;;;6125536;22;87510;-61
2024/02/01 11:04:08;;;;;;;6.85;2.97;;;23.00;47.60;;;;;;6152164;22;87544;-60
2024/02/01 11:06:36;;;;;;;10.20;2.85;;;23.00;47.80;;;;;;6151615;22;88196;-60
2024/02/01 11:09:18;;;;;;;8.57;3.15;;;23.10;48.00;;;;;;6152555;22;87202;-59
2024/02/01 11:11:52;;;;;;;7.32;2.92;;;23.10;48.40;;;;;;6152921;22;87360;-60
2024/02/01 11:14:26;;;;;;;6.20;2.53;;;23.10;48.50;;;;;;6151487;22;91289;-61
2024/02/01 11:17:02;;;;;;;7.63;3.10;;;23.10;48.60;;;;;;6124218;22;89187;-60
2024/02/01 11:19:34;;;;;;;6.97;2.97;;;23.10;48.80;;;;;;6147726;22;89823;-59
2024/02/01 11:22:07;;;;;;;7.93;3.42;;;23.10;49.00;;;;;;6123523;22;87294;-59
2024/02/01 11:24:35;;;;;;;10.10;3.13;;;23.10;49.20;;;;;;6150943;22;88997;-62
2024/02/01 11:27:18;;;;;;;6.40;2.78;;;23.10;49.20;;;;;;6148342;22;88939;-60
2024/02/01 11:29:45;;;;;;;8.50;2.90;;;23.10;49.20;;;;;;6152250;22;87420;-60
2024/02/01 11:32:18;;;;;;;7.57;2.80;;;23.20;49.30;;;;;;6151363;22;86867;-59
2024/02/01 11:34:53;;;;;;;9.48;3.00;;;23.10;48.40;;;;;;6146355;22;88032;-60
2024/02/01 11:37:20;;;;;;;9.90;3.30;;;23.20;49.20;;;;;;6150633;22;88140;-60
2024/02/01 11:39:47;;;;;;;6.05;2.42;;;23.10;49.10;;;;;;6124557;22;89256;-60
2024/02/01 11:42:13;;;;;;;6.95;2.25;;;23.10;48.40;;;;;;6124542;22;88341;-59
2024/02/01 11:44:40;;;;;;;6.60;2.72;;;23.10;48.80;;;;;;6124126;22;87440;-62
2024/02/01 11:47:07;;;;;;;9.77;2.72;;;23.10;49.00;;;;;;6151003;22;87475;-61
2024/02/01 11:49:36;;;;;;;9.23;2.40;;;23.10;49.10;;;;;;6124631;22;88513;-60
2024/02/01 11:52:29;;;;;;;9.65;2.78;;;23.10;48.80;;;;;;6144656;22;87188;-63
2024/02/01 11:54:55;;;;;;;8.68;3.13;;;23.00;48.80;;;;;;6123602;22;87122;-61
2024/02/01 11:57:25;;;;;;;7.18;2.83;;;23.10;48.80;;;;;;6109235;22;88927;-60
2024/02/01 11:59:55;;;;;;;6.35;2.72;;;23.10;48.80;;;;;;6125668;22;87374;-61
2024/02/01 12:02:22;;;;;;;6.25;2.60;;;23.10;48.90;;;;;;6151593;22;87092;-62
2024/02/01 12:04:51;;;;;;;5.30;2.65;;;23.10;49.00;;;;;;6150060;22;87236;-63
2024/02/01 12:07:20;;;;;;;5.72;2.20;;;23.10;49.10;;;;;;6150360;22;88945;-61
2024/02/01 12:09:47;;;;;;;5.57;3.05;;;23.10;49.10;;;;;;6123689;22;88088;-62
2024/02/01 12:12:17;;;;;;;6.15;2.53;;;23.00;49.20;;;;;;6124174;22;87667;-60
2024/02/01 12:14:44;;;;;;;5.63;2.20;;;23.10;49.20;;;;;;6124039;22;88262;-61
2024/02/01 12:17:17;;;;;;;9.25;3.35;;;23.10;49.20;;;;;;6150000;22;87515;-61
2024/02/01 12:19:46;;;;;;;11.15;2.55;;;23.10;49.30;;;;;;6149117;22;88264;-59
2024/02/01 12:22:12;;;;;;;6.73;2.43;;;23.10;49.50;;;;;;6122693;22;87180;-60
2024/02/01 12:24:40;;;;;;;6.05;2.40;;;23.10;49.40;;;;;;6149663;22;86846;-62
2024/02/01 12:27:06;;;;;;;8.60;3.00;;;23.00;49.50;;;;;;6122117;22;87678;-61
2024/02/01 12:29:33;;;;;;;7.15;2.38;;;23.10;49.60;;;;;;6150101;22;87795;-63
2024/02/01 12:31:59;;;;;;;3.95;1.88;;;23.10;49.70;;;;;;6123373;22;88519;-60
2024/02/01 12:34:26;;;;;;;6.13;2.30;;;23.10;49.80;;;;;;6152178;22;88071;-59
2024/02/01 12:36:52;;;;;;;6.03;2.88;;;23.10;49.60;;;;;;6124163;22;88103;-60
2024/02/01 12:39:19;;;;;;;6.80;3.10;;;23.00;49.40;;;;;;6150009;22;86896;-60
2024/02/01 12:41:48;;;;;;;7.15;2.53;;;23.10;49.40;;;;;;6124880;22;87135;-60
2024/02/01 12:44:13;;;;;;;8.32;3.22;;;23.10;49.20;;;;;;6125616;22;88242;-60
2024/02/01 12:46:43;;;;;;;11.75;2.78;;;23.10;49.30;;;;;;6152663;22;88017;-61
2024/02/01 12:49:12;;;;;;;;;;;23.10;49.30;;;;;;6152445;22;87792;-61
2024/02/01 12:51:42;;;;;;;6.38;2.85;;;23.10;49.20;;;;;;6152830;22;87745;-60
2024/02/01 12:54:08;;;;;;;7.57;3.33;;;23.10;49.00;;;;;;6151211;22;87146;-61
2024/02/01 12:56:36;;;;;;;10.70;3.13;;;23.10;48.00;;;;;;6124339;22;89762;-61
2024/02/01 12:59:04;;;;;;;10.10;3.47;;;23.20;47.80;;;;;;6151063;22;88660;-60
2024/02/01 13:01:33;;;;;;;10.93;3.45;;;23.20;47.30;;;;;;6145074;22;87287;-60
2024/02/01 13:04:02;;;;;;;10.50;3.78;;;23.10;47.40;;;;;;6149592;22;87452;-61
2024/02/01 13:06:29;;;;;;;13.80;4.82;;;23.10;47.20;;;;;;6124268;22;87570;-62
2024/02/01 13:08:54;;;;;;;11.05;4.45;;;23.20;47.00;;;;;;6152393;22;87793;-61
2024/02/01 13:11:29;;;;;;;12.45;4.07;;;23.10;47.00;;;;;;6126672;22;87297;-60
2024/02/01 13:13:55;;;;;;;12.30;4.07;;;23.20;47.10;;;;;;6153914;22;86625;-60
2024/02/01 13:16:24;;;;;;;10.95;4.10;;;23.20;47.20;;;;;;6125951;22;88461;-60
2024/02/01 13:18:50;;;;;;;11.65;3.65;;;23.10;47.10;;;;;;6150597;22;88872;-59
2024/02/01 13:21:16;;;;;;;10.20;3.42;;;23.10;47.10;;;;;;6126177;22;87753;-60
2024/02/01 13:23:46;;;;;;;12.20;3.67;;;23.10;47.40;;;;;;6153027;22;86801;-61
2024/02/01 13:26:13;;;;;;;9.52;3.20;;;23.20;47.20;;;;;;6146988;22;88029;-61
2024/02/01 13:28:39;;;;;;;13.35;4.10;;;23.10;47.30;;;;;;6099640;22;90544;-61
2024/02/01 13:31:05;;;;;;;12.43;3.55;;;23.10;47.50;;;;;;6150880;22;87110;-63
2024/02/01 13:33:35;;;;;;;20.05;5.47;;;23.10;57.90;;;;;;6153754;22;87203;-63
2024/02/01 13:36:02;;;;;;;15.02;5.35;;;23.10;50.40;;;;;;6152497;22;87802;-63
2024/02/01 13:38:28;;;;;;;13.98;4.60;;;23.10;49.80;;;;;;6153277;22;87935;-63
2024/02/01 13:40:54;;;;;;;13.23;5.00;;;23.00;49.50;;;;;;6125627;22;87667;-63
2024/02/01 13:43:20;;;;;;;12.05;4.05;;;23.00;49.10;;;;;;6124957;22;87283;-62
2024/02/01 13:45:48;;;;;;;14.10;4.43;;;23.00;48.70;;;;;;6151959;22;88956;-62
2024/02/01 13:48:14;;;;;;;11.25;3.58;;;23.10;48.90;;;;;;6124848;22;88439;-62